createdAt,value
2017-12-27T00:00:04.567Z,0.5
2017-12-27T00:01:11.762Z,0.4
2017-12-27T00:02:18.949Z,0.4
2017-12-27T00:03:26.137Z,0.3
2017-12-27T00:04:33.104Z,0.3
2017-12-27T00:05:40.278Z,0.2
2017-12-27T00:06:47.468Z,0.2
2017-12-27T00:07:54.657Z,0.2
2017-12-27T00:09:01.847Z,0.1
2017-12-27T00:10:09.052Z,0.1
2017-12-27T00:11:16.245Z,0.1
2017-12-27T00:12:23.426Z,0
2017-12-27T00:13:30.342Z,0.1
2017-12-27T00:14:37.532Z,0
2017-12-27T00:15:44.730Z,0
2017-12-27T00:16:51.924Z,0
2017-12-27T00:17:59.124Z,-0.1
2017-12-27T00:19:06.040Z,-0.1
2017-12-27T00:20:13.233Z,0
2017-12-27T00:21:20.421Z,-0.1
2017-12-27T00:22:27.354Z,-0.1
2017-12-27T00:23:34.544Z,-0.1
2017-12-27T00:24:41.739Z,-0.1
2017-12-27T00:25:48.938Z,-0.1
2017-12-27T00:26:56.130Z,-0.2
2017-12-27T00:28:03.321Z,-0.2
2017-12-27T00:29:10.514Z,-0.1
2017-12-27T00:30:17.709Z,-0.1
2017-12-27T00:31:24.894Z,-0.1
2017-12-27T00:32:32.080Z,-0.1
2017-12-27T00:33:39.274Z,-0.2
2017-12-27T00:34:46.463Z,-0.2
2017-12-27T00:35:53.654Z,-0.2
2017-12-27T00:37:00.837Z,-0.2
2017-12-27T00:38:07.757Z,-0.2
2017-12-27T00:39:14.957Z,-0.2
2017-12-27T00:40:22.139Z,-0.2
2017-12-27T00:41:29.332Z,-0.2
2017-12-27T00:42:36.518Z,-0.1
2017-12-27T00:43:43.426Z,-0.1
2017-12-27T00:44:50.615Z,0
2017-12-27T00:45:57.798Z,0
2017-12-27T00:47:04.988Z,0.2
2017-12-27T00:48:12.177Z,0.3
2017-12-27T00:49:19.122Z,0.4
2017-12-27T00:50:26.312Z,0.4
2017-12-27T00:51:33.497Z,0.4
2017-12-27T00:52:40.683Z,0.4
2017-12-27T00:53:47.599Z,0.5
2017-12-27T00:54:54.794Z,0.6
2017-12-27T00:56:01.707Z,0.6
2017-12-27T00:57:08.896Z,0.7
2017-12-27T00:58:16.082Z,0.8
2017-12-27T00:59:23.273Z,0.8
2017-12-27T01:00:30.460Z,0.7
2017-12-27T01:01:37.649Z,0.7
2017-12-27T01:02:44.836Z,0.7
2017-12-27T01:03:52.024Z,0.7
2017-12-27T01:04:59.209Z,0.7
2017-12-27T01:06:06.394Z,0.7
2017-12-27T01:07:13.585Z,0.7
2017-12-27T01:08:20.772Z,0.7
2017-12-27T01:09:27.961Z,0.7
2017-12-27T01:10:35.156Z,0.7
2017-12-27T01:11:42.338Z,0.8
2017-12-27T01:12:49.536Z,0.8
2017-12-27T01:13:56.712Z,0.8
2017-12-27T01:15:03.900Z,0.9
2017-12-27T01:16:11.083Z,0.9
2017-12-27T01:17:18.271Z,0.9
2017-12-27T01:18:25.458Z,0.9
2017-12-27T01:19:32.647Z,0.9
2017-12-27T01:20:39.832Z,0.9
2017-12-27T01:21:47.023Z,0.9
2017-12-27T01:22:54.205Z,0.9
2017-12-27T01:24:01.395Z,1
2017-12-27T01:25:08.575Z,1
2017-12-27T01:26:15.760Z,1
2017-12-27T01:27:22.946Z,1
2017-12-27T01:28:30.135Z,1.1
2017-12-27T01:29:37.049Z,1.1
2017-12-27T01:30:43.962Z,1.1
2017-12-27T01:31:50.879Z,1.1
2017-12-27T01:32:58.065Z,1.1
2017-12-27T01:34:05.249Z,1.1
2017-12-27T01:35:12.436Z,1.1
2017-12-27T01:36:19.637Z,1.2
2017-12-27T01:37:26.545Z,1.2
2017-12-27T01:38:33.750Z,1.3
2017-12-27T01:39:40.933Z,1.3
2017-12-27T01:40:47.852Z,1.3
2017-12-27T01:41:55.040Z,1.3
2017-12-27T01:43:02.231Z,1.3
2017-12-27T01:44:09.451Z,1.3
2017-12-27T01:45:16.639Z,1.3
2017-12-27T01:46:23.827Z,1.3
2017-12-27T01:47:30.741Z,1.4
2017-12-27T01:48:37.930Z,1.4
2017-12-27T01:49:44.841Z,1.4
2017-12-27T01:50:52.030Z,1.5
2017-12-27T01:51:59.218Z,1.4
2017-12-27T01:53:06.401Z,1.5
2017-12-27T01:54:13.589Z,1.5
2017-12-27T01:55:20.776Z,1.5
2017-12-27T01:56:27.967Z,1.5
2017-12-27T01:57:35.504Z,1.5
2017-12-27T01:58:42.693Z,1.5
2017-12-27T01:59:49.915Z,1.5
2017-12-27T02:00:56.827Z,1.5
2017-12-27T02:02:03.758Z,1.5
2017-12-27T02:03:10.945Z,1.5
2017-12-27T02:04:18.129Z,1.5
2017-12-27T02:05:25.037Z,1.5
2017-12-27T02:06:31.958Z,1.5
2017-12-27T02:07:39.147Z,1.4
2017-12-27T02:08:46.059Z,1.4
2017-12-27T02:09:53.253Z,1.4
2017-12-27T02:11:00.435Z,1.4
2017-12-27T02:12:07.346Z,1.3
2017-12-27T02:13:14.533Z,1.3
2017-12-27T02:14:21.442Z,1.3
2017-12-27T02:15:28.631Z,1.3
2017-12-27T02:16:35.821Z,1.2
2017-12-27T02:17:43.012Z,1.2
2017-12-27T02:18:50.377Z,1.2
2017-12-27T02:19:57.562Z,1.2
2017-12-27T02:21:04.763Z,1.1
2017-12-27T02:22:11.950Z,1.1
2017-12-27T02:23:18.859Z,1.1
2017-12-27T02:24:26.047Z,1.1
2017-12-27T02:25:33.238Z,1.1
2017-12-27T02:26:40.154Z,1.2
2017-12-27T02:27:47.070Z,1.2
2017-12-27T02:28:53.983Z,1.3
2017-12-27T02:30:01.169Z,1.3
2017-12-27T02:31:08.354Z,1.4
2017-12-27T02:32:15.545Z,1.4
2017-12-27T02:33:22.734Z,1.4
2017-12-27T02:34:29.920Z,1.5
2017-12-27T02:35:36.832Z,1.5
2017-12-27T02:36:44.020Z,1.5
2017-12-27T02:37:52.398Z,1.5
2017-12-27T02:38:59.591Z,1.5
2017-12-27T02:40:06.794Z,1.4
2017-12-27T02:41:13.994Z,1.5
2017-12-27T02:42:20.903Z,1.5
2017-12-27T02:43:28.090Z,1.5
2017-12-27T02:44:35.279Z,1.5
2017-12-27T02:45:42.464Z,1.4
2017-12-27T02:46:49.665Z,1.4
2017-12-27T02:47:56.854Z,1.4
2017-12-27T02:49:03.765Z,1.4
2017-12-27T02:50:10.956Z,1.4
2017-12-27T02:51:18.148Z,1.4
2017-12-27T02:52:25.336Z,1.3
2017-12-27T02:53:32.519Z,1.3
2017-12-27T02:54:39.707Z,1.3
2017-12-27T02:55:46.896Z,1.3
2017-12-27T02:56:54.101Z,1.3
2017-12-27T02:58:01.274Z,1.3
2017-12-27T02:59:08.481Z,1.3
2017-12-27T03:00:15.389Z,1.3
2017-12-27T03:01:22.579Z,1.3
2017-12-27T03:02:29.488Z,1.2
2017-12-27T03:03:36.403Z,1.2
2017-12-27T03:04:43.590Z,1.3
2017-12-27T03:05:50.494Z,1.3
2017-12-27T03:06:57.411Z,1.2
2017-12-27T03:08:04.319Z,1.2
2017-12-27T03:09:11.505Z,1.1
2017-12-27T03:10:18.695Z,1.2
2017-12-27T03:11:25.878Z,1.2
2017-12-27T03:12:33.064Z,1.2
2017-12-27T03:13:40.252Z,1.2
2017-12-27T03:14:47.440Z,1.2
2017-12-27T03:15:54.625Z,1.2
2017-12-27T03:17:01.821Z,1.2
2017-12-27T03:18:09.005Z,1.2
2017-12-27T03:19:16.191Z,1.1
2017-12-27T03:20:42.852Z,1.1
2017-12-27T03:21:50.037Z,1
2017-12-27T03:22:56.956Z,1
2017-12-27T03:24:04.139Z,1.1
2017-12-27T03:25:11.332Z,1.1
2017-12-27T03:26:18.517Z,1.1
2017-12-27T03:27:25.707Z,1
2017-12-27T03:28:32.614Z,1
2017-12-27T03:29:39.534Z,1
2017-12-27T03:30:46.727Z,1
2017-12-27T03:31:53.638Z,1
2017-12-27T03:33:00.277Z,1
2017-12-27T03:34:07.461Z,1
2017-12-27T03:35:14.652Z,1.2
2017-12-27T03:36:21.842Z,1.2
2017-12-27T03:37:29.050Z,1.1
2017-12-27T03:38:36.443Z,1.1
2017-12-27T03:39:43.628Z,1.1
2017-12-27T03:40:50.816Z,1.1
2017-12-27T03:41:58.000Z,1.1
2017-12-27T03:43:05.192Z,1.1
2017-12-27T03:44:12.378Z,1.1
2017-12-27T03:45:19.565Z,1.1
2017-12-27T03:46:26.477Z,1
2017-12-27T03:47:33.394Z,0.9
2017-12-27T03:48:40.578Z,0.9
2017-12-27T03:49:47.768Z,0.8
2017-12-27T03:50:54.952Z,0.8
2017-12-27T03:52:02.139Z,0.8
2017-12-27T03:53:09.326Z,0.8
2017-12-27T03:54:16.516Z,0.7
2017-12-27T03:55:23.423Z,0.7
2017-12-27T03:56:30.613Z,0.8
2017-12-27T03:57:37.807Z,0.8
2017-12-27T03:58:44.749Z,0.7
2017-12-27T03:59:51.665Z,0.6
2017-12-27T04:00:58.582Z,0.6
2017-12-27T04:02:05.772Z,0.5
2017-12-27T04:03:12.966Z,0.5
2017-12-27T04:04:19.875Z,0.5
2017-12-27T04:05:27.060Z,0.5
2017-12-27T04:06:34.250Z,0.5
2017-12-27T04:07:41.466Z,0.5
2017-12-27T04:08:48.658Z,0.4
2017-12-27T04:09:55.845Z,0.4
2017-12-27T04:11:03.030Z,0.4
2017-12-27T04:12:10.220Z,0.4
2017-12-27T04:13:17.408Z,0.4
2017-12-27T04:14:24.589Z,0.4
2017-12-27T04:15:31.504Z,0.4
2017-12-27T04:16:38.688Z,0.4
2017-12-27T04:17:45.607Z,0.4
2017-12-27T04:18:52.797Z,0.4
2017-12-27T04:19:59.705Z,0.4
2017-12-27T04:21:06.620Z,0.4
2017-12-27T04:22:13.806Z,0.3
2017-12-27T04:23:20.992Z,0.2
2017-12-27T04:24:28.178Z,0.2
2017-12-27T04:25:35.368Z,0.2
2017-12-27T04:26:42.554Z,0.2
2017-12-27T04:27:49.471Z,0.1
2017-12-27T04:28:56.687Z,0.1
2017-12-27T04:30:03.874Z,0.2
2017-12-27T04:31:11.063Z,0.2
2017-12-27T04:32:17.998Z,0.2
2017-12-27T04:33:24.366Z,0.3
2017-12-27T04:34:31.558Z,0.3
2017-12-27T04:35:38.748Z,0.3
2017-12-27T04:36:45.952Z,0.2
2017-12-27T04:37:53.141Z,0.2
2017-12-27T04:39:00.343Z,0.2
2017-12-27T04:40:07.532Z,0.2
2017-12-27T04:41:14.715Z,0.2
2017-12-27T04:42:21.902Z,0.2
2017-12-27T04:43:29.089Z,0.1
2017-12-27T04:44:36.277Z,0
2017-12-27T04:45:43.185Z,0
2017-12-27T04:46:50.386Z,-0.1
2017-12-27T04:47:57.574Z,0
2017-12-27T04:49:04.759Z,0
2017-12-27T04:50:11.945Z,0.1
2017-12-27T04:51:19.133Z,0.1
2017-12-27T04:52:26.317Z,0.1
2017-12-27T04:53:33.510Z,0.1
2017-12-27T04:54:40.702Z,0.2
2017-12-27T04:55:47.889Z,0.2
2017-12-27T04:56:55.078Z,0.2
2017-12-27T04:58:01.735Z,0.2
2017-12-27T04:59:08.921Z,0.2
2017-12-27T05:00:16.120Z,0.2
2017-12-27T05:01:23.308Z,0.2
2017-12-27T05:02:30.499Z,0.3
2017-12-27T05:03:37.417Z,0.3
2017-12-27T05:04:44.604Z,0.3
2017-12-27T05:05:51.797Z,0.4
2017-12-27T05:06:58.978Z,0.4
2017-12-27T05:08:06.165Z,0.4
2017-12-27T05:09:13.356Z,0.5
2017-12-27T05:10:20.544Z,0.5
2017-12-27T05:11:27.731Z,0.5
2017-12-27T05:12:34.921Z,0.6
2017-12-27T05:13:41.829Z,0.6
2017-12-27T05:14:49.017Z,0.6
2017-12-27T05:15:56.214Z,0.6
2017-12-27T05:17:03.403Z,0.6
2017-12-27T05:18:10.591Z,0.6
2017-12-27T05:19:17.793Z,0.6
2017-12-27T05:20:24.981Z,0.7
2017-12-27T05:21:32.184Z,0.7
2017-12-27T05:22:39.374Z,0.7
2017-12-27T05:23:46.290Z,0.7
2017-12-27T05:24:53.480Z,0.7
2017-12-27T05:26:00.665Z,0.7
2017-12-27T05:27:07.578Z,0.7
2017-12-27T05:28:14.215Z,0.7
2017-12-27T05:29:21.127Z,0.7
2017-12-27T05:30:28.312Z,0.7
2017-12-27T05:31:35.502Z,0.6
2017-12-27T05:32:42.701Z,0.6
2017-12-27T05:33:49.903Z,0.6
2017-12-27T05:34:57.093Z,0.6
2017-12-27T05:36:04.283Z,0.5
2017-12-27T05:37:11.470Z,0.5
2017-12-27T05:38:18.652Z,0.5
2017-12-27T05:39:25.565Z,0.5
2017-12-27T05:40:32.789Z,0.5
2017-12-27T05:41:39.701Z,0.4
2017-12-27T05:42:46.622Z,0.4
2017-12-27T05:43:53.810Z,0.4
2017-12-27T05:45:00.995Z,0.4
2017-12-27T05:46:07.905Z,0.5
2017-12-27T05:47:15.096Z,0.4
2017-12-27T05:48:22.285Z,0.4
2017-12-27T05:49:29.471Z,0.4
2017-12-27T05:50:36.381Z,0.4
2017-12-27T05:51:43.569Z,0.3
2017-12-27T05:52:50.754Z,0.3
2017-12-27T05:53:57.950Z,0.4
2017-12-27T05:55:04.865Z,0.4
2017-12-27T05:56:12.052Z,0.5
2017-12-27T05:57:19.241Z,0.5
2017-12-27T05:58:26.427Z,0.6
2017-12-27T05:59:33.612Z,0.6
2017-12-27T06:00:40.796Z,0.7
2017-12-27T06:01:47.999Z,0.7
2017-12-27T06:02:55.190Z,0.7
2017-12-27T06:04:02.390Z,0.7
2017-12-27T06:05:09.576Z,0.7
2017-12-27T06:06:16.761Z,0.7
2017-12-27T06:07:23.948Z,0.8
2017-12-27T06:08:31.134Z,0.8
2017-12-27T06:09:38.321Z,0.8
2017-12-27T06:10:45.516Z,0.8
2017-12-27T06:11:52.717Z,0.8
2017-12-27T06:12:59.898Z,0.8
2017-12-27T06:14:06.808Z,0.7
2017-12-27T06:15:13.999Z,0.7
2017-12-27T06:16:21.182Z,0.7
2017-12-27T06:17:28.374Z,0.6
2017-12-27T06:18:35.571Z,0.6
2017-12-27T06:19:42.757Z,0.6
2017-12-27T06:20:49.943Z,0.6
2017-12-27T06:21:57.138Z,0.6
2017-12-27T06:23:04.320Z,0.6
2017-12-27T06:24:11.508Z,0.6
2017-12-27T06:25:18.691Z,0.6
2017-12-27T06:26:25.875Z,0.6
2017-12-27T06:27:32.791Z,0.5
2017-12-27T06:28:39.704Z,0.5
2017-12-27T06:29:46.888Z,0.5
2017-12-27T06:30:54.078Z,0.5
2017-12-27T06:32:01.263Z,0.5
2017-12-27T06:33:08.457Z,0.5
2017-12-27T06:34:15.090Z,0.5
2017-12-27T06:35:22.278Z,0.5
2017-12-27T06:36:29.464Z,0.4
2017-12-27T06:37:36.652Z,0.5
2017-12-27T06:38:43.563Z,0.5
2017-12-27T06:39:50.754Z,0.4
2017-12-27T06:40:57.950Z,0.5
2017-12-27T06:42:05.137Z,0.5
2017-12-27T06:43:12.327Z,0.5
2017-12-27T06:44:19.519Z,0.5
2017-12-27T06:45:26.703Z,0.4
2017-12-27T06:46:33.890Z,0.4
2017-12-27T06:47:41.082Z,0.4
2017-12-27T06:48:48.270Z,0.5
2017-12-27T06:49:55.179Z,0.5
2017-12-27T06:51:02.361Z,0.5
2017-12-27T06:52:09.549Z,0.5
2017-12-27T06:53:16.734Z,0.5
2017-12-27T06:54:23.652Z,0.5
2017-12-27T06:55:30.869Z,0.5
2017-12-27T06:56:38.050Z,0.5
2017-12-27T06:57:45.247Z,0.5
2017-12-27T06:58:52.203Z,0.5
2017-12-27T06:59:59.390Z,0.5
2017-12-27T07:01:06.578Z,0.5
2017-12-27T07:02:13.790Z,0.5
2017-12-27T07:03:20.978Z,0.5
2017-12-27T07:04:28.174Z,0.5
2017-12-27T07:05:35.086Z,0.5
2017-12-27T07:06:42.304Z,0.5
2017-12-27T07:07:49.218Z,0.5
2017-12-27T07:08:56.431Z,0.5
2017-12-27T07:10:03.626Z,0.5
2017-12-27T07:11:10.824Z,0.5
2017-12-27T07:12:18.012Z,0.5
2017-12-27T07:13:25.197Z,0.5
2017-12-27T07:14:32.407Z,0.5
2017-12-27T07:15:39.597Z,0.5
2017-12-27T07:16:46.800Z,0.5
2017-12-27T07:17:53.985Z,0.5
2017-12-27T07:19:00.903Z,0.5
2017-12-27T07:20:08.093Z,0.5
2017-12-27T07:21:15.278Z,0.5
2017-12-27T07:22:22.476Z,0.5
2017-12-27T07:23:29.662Z,0.5
2017-12-27T07:24:36.860Z,0.5
2017-12-27T07:25:44.047Z,0.5
2017-12-27T07:26:51.237Z,0.5
2017-12-27T07:27:58.147Z,0.5
2017-12-27T07:29:05.336Z,0.5
2017-12-27T07:30:12.550Z,0.5
2017-12-27T07:31:19.738Z,0.5
2017-12-27T07:32:26.927Z,0.5
2017-12-27T07:33:34.447Z,0.5
2017-12-27T07:34:41.651Z,0.5
2017-12-27T07:35:48.836Z,0.5
2017-12-27T07:36:56.038Z,0.5
2017-12-27T07:38:03.225Z,0.5
2017-12-27T07:39:10.415Z,0.5
2017-12-27T07:40:17.615Z,0.5
2017-12-27T07:41:24.794Z,0.5
2017-12-27T07:42:31.996Z,0.4
2017-12-27T07:43:39.195Z,0.4
2017-12-27T07:44:46.384Z,0.5
2017-12-27T07:45:53.304Z,0.5
2017-12-27T07:47:00.513Z,0.4
2017-12-27T07:48:07.699Z,0.4
2017-12-27T07:49:14.626Z,0.4
2017-12-27T07:50:21.811Z,0.4
2017-12-27T07:51:29.003Z,0.4
2017-12-27T07:52:36.190Z,0.5
2017-12-27T07:53:43.104Z,0.4
2017-12-27T07:54:50.014Z,0.5
2017-12-27T07:55:56.660Z,0.5
2017-12-27T07:57:03.848Z,0.5
2017-12-27T07:58:11.123Z,0.5
2017-12-27T07:59:18.298Z,0.5
2017-12-27T08:00:26.078Z,0.5
2017-12-27T08:01:33.273Z,0.6
2017-12-27T08:02:40.458Z,0.6
2017-12-27T08:03:47.651Z,0.6
2017-12-27T08:04:54.568Z,0.6
2017-12-27T08:06:01.761Z,0.7
2017-12-27T08:07:08.951Z,0.7
2017-12-27T08:08:16.179Z,0.7
2017-12-27T08:09:23.372Z,0.7
2017-12-27T08:10:30.557Z,0.7
2017-12-27T08:11:37.754Z,0.8
2017-12-27T08:12:44.964Z,0.7
2017-12-27T08:13:52.158Z,0.8
2017-12-27T08:14:59.076Z,0.8
2017-12-27T08:16:06.268Z,0.8
2017-12-27T08:17:13.458Z,0.8
2017-12-27T08:18:20.652Z,0.8
2017-12-27T08:19:27.839Z,0.8
2017-12-27T08:20:35.030Z,0.9
2017-12-27T08:21:42.235Z,0.9
2017-12-27T08:22:49.163Z,0.9
2017-12-27T08:23:56.350Z,0.9
2017-12-27T08:25:03.540Z,0.9
2017-12-27T08:26:10.732Z,0.9
2017-12-27T08:27:17.864Z,0.9
2017-12-27T08:28:24.776Z,0.9
2017-12-27T08:29:31.964Z,0.9
2017-12-27T08:30:39.178Z,1
2017-12-27T08:31:46.125Z,0.9
2017-12-27T08:32:53.319Z,0.9
2017-12-27T08:34:00.243Z,1
2017-12-27T08:35:07.437Z,1
2017-12-27T08:36:14.627Z,1
2017-12-27T08:37:21.816Z,1
2017-12-27T08:38:28.994Z,1
2017-12-27T08:39:36.184Z,1
2017-12-27T08:40:43.373Z,1
2017-12-27T08:41:50.287Z,1
2017-12-27T08:42:57.477Z,1
2017-12-27T08:44:04.672Z,1.1
2017-12-27T08:45:11.587Z,1
2017-12-27T08:46:18.771Z,1.1
2017-12-27T08:47:25.681Z,1
2017-12-27T08:48:32.601Z,1.1
2017-12-27T08:49:39.793Z,1.1
2017-12-27T08:50:46.981Z,1.1
2017-12-27T08:51:54.170Z,1.1
2017-12-27T08:53:01.358Z,1.2
2017-12-27T08:54:08.556Z,1.2
2017-12-27T08:55:15.739Z,1.2
2017-12-27T08:56:22.935Z,1.2
2017-12-27T08:57:29.853Z,1.2
2017-12-27T08:58:37.043Z,1.2
2017-12-27T08:59:44.235Z,1.2
2017-12-27T09:00:51.429Z,1.2
2017-12-27T09:01:58.619Z,1.2
2017-12-27T09:03:05.811Z,1.2
2017-12-27T09:04:12.999Z,1.2
2017-12-27T09:05:19.913Z,1.2
2017-12-27T09:06:27.099Z,1.2
2017-12-27T09:07:34.009Z,1.2
2017-12-27T09:08:41.200Z,1.2
2017-12-27T09:09:48.116Z,1.2
2017-12-27T09:10:55.302Z,1.3
2017-12-27T09:12:02.498Z,1.3
2017-12-27T09:13:09.680Z,1.3
2017-12-27T09:14:16.869Z,1.3
2017-12-27T09:15:24.055Z,1.4
2017-12-27T09:16:31.257Z,1.4
2017-12-27T09:17:38.177Z,1.4
2017-12-27T09:18:45.362Z,1.5
2017-12-27T09:19:52.556Z,1.5
2017-12-27T09:20:59.755Z,1.5
2017-12-27T09:22:06.668Z,1.6
